Time;durP1;ratioP1;P1;durP2;ratioP2;P2;SDS_P1;SDS_P2;PMS_P1;PMS_P2;Temp;Humidity;BMP_temperature;BMP_pressure;BME280_temperature;BME280_humidity;BME280_pressure;Samples;Min_cycle;Max_cycle;Signal;HPM_P1;HPM_P2
2023/08/28 00:00:33;;;;;;;1.30;0.90;;;;;;;17.71;73.99;98467.28;5094730;28;39888;-81
2023/08/28 00:03:02;;;;;;;1.23;1.07;;;;;;;17.64;74.03;98460.84;5059241;28;40601;-84
2023/08/28 00:05:30;;;;;;;1.07;1.00;;;;;;;17.55;73.79;98450.03;5091412;28;42795;-85
2023/08/28 00:07:57;;;;;;;0.90;0.90;;;;;;;17.50;73.71;98436.22;5075517;28;41208;-86
2023/08/28 00:10:25;;;;;;;1.17;1.07;;;;;;;17.62;74.01;98458.28;5076212;28;38788;-83
2023/08/28 00:12:53;;;;;;;1.20;1.00;;;;;;;17.54;73.94;98450.16;5076229;28;40593;-87
2023/08/28 00:15:20;;;;;;;0.80;0.80;;;;;;;17.56;73.55;98464.22;5076468;28;41655;-83
2023/08/28 00:17:48;;;;;;;1.37;1.20;;;;;;;17.43;73.66;98451.19;5074361;28;42015;-85
2023/08/28 00:20:18;;;;;;;1.33;1.00;;;;;;;17.50;73.70;98471.03;5075165;28;40991;-83
2023/08/28 00:22:46;;;;;;;4.00;1.30;;;;;;;17.11;73.70;98406.13;5074786;28;40952;-83
2023/08/28 00:25:13;;;;;;;0.90;0.90;;;;;;;17.43;73.53;98458.41;5075136;28;43746;-85
2023/08/28 00:27:41;;;;;;;1.00;1.00;;;;;;;17.33;73.43;98446.88;5092809;28;42499;-84
2023/08/28 00:30:09;;;;;;;1.10;1.00;;;;;;;17.32;73.69;98455.88;5075110;28;39914;-87
2023/08/28 00:32:37;;;;;;;1.20;1.10;;;;;;;17.28;73.31;98458.03;5057881;28;40587;-82
2023/08/28 00:35:06;;;;;;;1.27;1.00;;;;;;;17.14;73.62;98439.78;5057773;28;43220;-86
2023/08/28 00:37:35;;;;;;;2.50;0.90;;;;;;;17.18;73.75;98444.69;5058017;28;41206;-86
2023/08/28 00:40:04;;;;;;;1.03;0.93;;;;;;;16.97;73.64;98413.78;5057896;28;39576;-83
2023/08/28 00:42:31;;;;;;;1.27;1.17;;;;;;;17.11;73.89;98429.38;5074392;28;42759;-85
2023/08/28 00:44:59;;;;;;;0.80;0.80;;;;;;;17.06;73.69;98426.31;5057888;28;41952;-82
2023/08/28 00:47:27;;;;;;;1.30;1.00;;;;;;;16.87;74.39;98387.94;5057986;28;42384;-83
2023/08/28 00:49:54;;;;;;;0.93;0.93;;;;;;;16.77;74.69;98381.78;5058073;28;40066;-85
2023/08/28 00:52:22;;;;;;;1.33;1.23;;;;;;;16.92;74.58;98414.25;5057337;28;41869;-82
2023/08/28 00:54:51;;;;;;;1.13;1.03;;;;;;;16.86;75.03;98407.66;5059143;28;41691;-86
2023/08/28 00:57:18;;;;;;;1.23;1.13;;;;;;;16.71;74.63;98390.38;5058518;28;40791;-83
2023/08/28 00:59:47;;;;;;;2.30;1.10;;;;;;;16.70;74.46;98395.88;5075337;28;38421;-84
2023/08/28 01:02:15;;;;;;;1.30;0.93;;;;;;;16.71;74.25;98405.56;5058834;28;41135;-86
2023/08/28 01:04:43;;;;;;;1.33;1.23;;;;;;;16.57;74.29;98384.66;5075176;28;42907;-85
2023/08/28 01:07:20;;;;;;;0.93;0.90;;;;;;;16.67;74.52;98405.03;5075058;28;42655;-84
2023/08/28 01:10:02;;;;;;;1.47;1.20;;;;;;;16.56;74.45;98399.84;5058354;28;40886;-85
2023/08/28 01:12:38;;;;;;;1.17;1.07;;;;;;;16.57;74.21;98412.19;5075335;28;41315;-88
2023/08/28 01:15:10;;;;;;;0.97;0.80;;;;;;;16.66;74.22;98427.41;5072308;28;42649;-84
2023/08/28 01:17:40;;;;;;;0.80;0.80;;;;;;;16.35;73.84;98375.09;5074927;28;42291;-85
2023/08/28 01:20:13;;;;;;;1.00;0.70;;;;;;;16.52;73.88;98404.63;5057315;28;38835;-83
2023/08/28 01:22:46;;;;;;;2.57;1.10;;;;;;;16.41;74.09;98378.06;5073740;28;41146;-84
2023/08/28 01:25:16;;;;;;;1.17;1.00;;;;;;;16.54;73.83;98401.81;5056473;28;43017;-87
2023/08/28 01:27:44;;;;;;;1.63;1.23;;;;;;;16.66;74.15;98431.91;5073463;28;42303;-86
2023/08/28 01:30:13;;;;;;;1.30;0.90;;;;;;;16.54;74.01;98415.16;5073684;28;40373;-83
2023/08/28 01:32:42;;;;;;;1.10;0.90;;;;;;;16.53;74.29;98416.16;5056706;28;40779;-84
2023/08/28 01:35:14;;;;;;;0.77;0.77;;;;;;;16.62;74.54;98430.47;5073574;28;41681;-86
2023/08/28 01:38:19;;;;;;;1.07;1.00;;;;;;;16.53;75.95;98416.16;5074105;28;41991;-85
2023/08/28 01:40:53;;;;;;;1.10;1.00;;;;;;;16.62;75.84;98444.72;5074043;28;40397;-86
2023/08/28 01:43:23;;;;;;;1.30;1.20;;;;;;;16.63;75.69;98449.09;5057230;28;40653;-86
2023/08/28 01:45:52;;;;;;;1.03;0.93;;;;;;;16.53;75.56;98442.88;5073388;28;41893;-85
2023/08/28 01:48:20;;;;;;;1.23;0.80;;;;;;;16.64;75.86;98461.47;5073594;28;42243;-86
2023/08/28 01:50:49;;;;;;;1.00;0.83;;;;;;;16.54;75.76;98452.59;5040668;28;38535;-82
2023/08/28 01:53:16;;;;;;;1.93;1.47;;;;;;;16.64;75.88;98466.81;5073835;28;42426;-82
2023/08/28 01:56:16;;;;;;;0.90;0.90;;;;;;;16.65;76.58;98468.50;5074450;28;41678;-82
2023/08/28 01:58:47;;;;;;;1.20;1.10;;;;;;;16.65;75.72;98471.19;5053918;28;41238;-83
2023/08/28 02:01:14;;;;;;;1.47;0.90;;;;;;;16.66;75.63;98480.06;5057948;28;39871;-85
2023/08/28 02:03:42;;;;;;;0.80;0.80;;;;;;;16.64;75.83;98474.00;5073854;28;40754;-84
2023/08/28 02:06:10;;;;;;;0.87;0.80;;;;;;;16.66;75.48;98478.22;5057801;28;41639;-85
2023/08/28 02:08:38;;;;;;;0.93;0.93;;;;;;;16.68;75.51;98478.09;5057583;28;42235;-84
2023/08/28 02:11:06;;;;;;;1.23;1.03;;;;;;;16.57;75.85;98456.81;5074452;28;39258;-83
2023/08/28 02:13:36;;;;;;;1.43;0.70;;;;;;;16.53;76.36;98448.22;5074558;28;42811;-85
2023/08/28 02:16:04;;;;;;;2.30;1.03;;;;;;;16.66;75.84;98486.25;5057572;28;41591;-85
2023/08/28 02:18:32;;;;;;;1.27;1.17;;;;;;;16.67;75.70;98476.38;5074018;28;41134;-84
2023/08/28 02:21:00;;;;;;;0.87;0.87;;;;;;;16.60;75.31;98454.69;5074555;28;39661;-84
2023/08/28 02:23:28;;;;;;;0.90;0.90;;;;;;;16.70;75.51;98471.56;5055204;28;40426;-87
2023/08/28 02:25:57;;;;;;;0.87;0.87;;;;;;;16.70;75.05;98474.25;5072821;28;41664;-81
2023/08/28 02:28:25;;;;;;;0.70;0.70;;;;;;;16.69;75.21;98469.88;5073118;28;42349;-85
2023/08/28 02:30:54;;;;;;;1.43;0.80;;;;;;;16.68;75.22;98468.22;5074923;28;40567;-86
2023/08/28 02:33:21;;;;;;;0.80;0.80;;;;;;;16.67;74.95;98461.19;5076473;28;42078;-83
2023/08/28 02:35:48;;;;;;;0.90;0.80;;;;;;;16.60;75.21;98452.00;5061819;28;41945;-83
2023/08/28 02:38:16;;;;;;;1.10;1.00;;;;;;;16.49;75.22;98430.78;5087852;28;41466;-81
2023/08/28 02:40:44;;;;;;;0.83;0.83;;;;;;;16.51;75.23;98444.84;5102116;28;40959;-84
2023/08/28 02:43:11;;;;;;;0.80;0.80;;;;;;;16.51;75.32;98444.84;5076721;28;41838;-83
2023/08/28 02:45:40;;;;;;;1.07;1.03;;;;;;;16.59;75.20;98453.00;5059494;28;41950;-85
2023/08/28 02:48:10;;;;;;;0.80;0.80;;;;;;;16.58;75.14;98450.47;5076096;28;42777;-87
2023/08/28 02:50:38;;;;;;;1.27;0.90;;;;;;;16.56;75.17;98447.13;5059476;28;39733;-86
2023/08/28 02:53:06;;;;;;;0.87;0.87;;;;;;;16.53;75.20;98433.03;5076752;28;42286;-85
2023/08/28 02:55:38;;;;;;;0.70;0.70;;;;;;;16.42;75.36;98414.50;5061076;28;42548;-85
2023/08/28 02:58:06;;;;;;;0.77;0.77;;;;;;;16.39;75.07;98397.88;5061010;28;41238;-84
2023/08/28 03:00:34;;;;;;;1.20;1.10;;;;;;;16.51;75.36;98407.44;5077915;28;39920;-84
2023/08/28 03:03:02;;;;;;;1.03;0.80;;;;;;;16.24;75.35;98361.91;5060292;28;40840;-85
2023/08/28 03:05:31;;;;;;;1.60;1.17;;;;;;;16.40;75.63;98383.53;5076522;28;41750;-87
2023/08/28 03:07:58;;;;;;;1.00;0.97;;;;;;;16.48;75.25;98397.03;5075371;28;42253;-85
2023/08/28 03:10:26;;;;;;;0.93;0.93;;;;;;;16.46;75.66;98399.84;5058980;28;39070;-86
2023/08/28 03:12:53;;;;;;;0.90;0.90;;;;;;;16.45;75.20;98402.66;5058603;28;40752;-85
2023/08/28 03:15:21;;;;;;;0.67;0.67;;;;;;;16.43;75.22;98405.50;5076292;28;43698;-84
2023/08/28 03:17:49;;;;;;;1.33;0.93;;;;;;;16.41;75.42;98395.91;5058927;28;41691;-86
2023/08/28 03:20:16;;;;;;;0.90;0.90;;;;;;;16.27;75.35;98366.97;5059385;28;38829;-85
2023/08/28 03:22:45;;;;;;;1.17;0.90;;;;;;;16.38;75.41;98385.50;5059109;28;41751;-85
2023/08/28 03:25:13;;;;;;;0.70;0.70;;;;;;;16.35;75.65;98381.28;5093754;28;42489;-85
2023/08/28 03:27:41;;;;;;;1.03;0.93;;;;;;;16.39;75.91;98387.19;5058833;28;42484;-85
2023/08/28 03:30:10;;;;;;;1.10;1.00;;;;;;;16.16;76.54;98350.13;5058994;28;38610;-84
2023/08/28 03:32:37;;;;;;;1.20;1.10;;;;;;;16.37;76.45;98389.16;5093602;28;41493;-86
2023/08/28 03:35:06;;;;;;;1.13;1.10;;;;;;;16.37;76.57;98384.66;5075827;28;42587;-81
2023/08/28 03:37:33;;;;;;;1.00;0.90;;;;;;;16.34;76.59;98386.78;5075455;28;43301;-84
2023/08/28 03:40:04;;;;;;;0.90;0.90;;;;;;;16.34;76.66;98395.63;5058758;28;40468;-83
2023/08/28 03:42:32;;;;;;;0.93;0.83;;;;;;;16.20;76.50;98376.53;5057534;28;42582;-85
2023/08/28 03:44:59;;;;;;;1.30;1.07;;;;;;;15.99;76.38;98350.84;5075583;28;43784;-85
2023/08/28 03:47:27;;;;;;;1.40;1.03;;;;;;;16.27;76.30;98399.88;5075521;28;42171;-86
2023/08/28 03:49:54;;;;;;;0.93;0.90;;;;;;;16.25;76.48;98404.53;5075654;28;40071;-85
2023/08/28 03:52:23;;;;;;;1.10;0.90;;;;;;;16.04;76.15;98372.63;5058371;28;40759;-87
2023/08/28 03:54:50;;;;;;;0.97;0.97;;;;;;;16.20;76.28;98393.41;5076404;28;43413;-83
2023/08/28 03:57:20;;;;;;;1.07;0.93;;;;;;;16.06;76.18;98370.66;5076342;28;43296;-86
2023/08/28 03:59:47;;;;;;;1.83;1.00;;;;;;;16.02;76.12;98374.59;5059672;28;38916;-84
2023/08/28 04:02:15;;;;;;;0.83;0.83;;;;;;;16.13;76.08;98401.16;5076147;28;42657;-83
2023/08/28 04:04:43;;;;;;;1.63;0.83;;;;;;;16.11;76.29;98399.59;5059495;28;41792;-84
2023/08/28 04:07:10;;;;;;;1.10;1.00;;;;;;;15.96;76.55;98375.16;5093253;28;42305;-84
2023/08/28 04:09:38;;;;;;;1.50;1.37;;;;;;;16.04;76.91;98391.34;5076577;28;40352;-84
2023/08/28 04:12:06;;;;;;;0.70;0.70;;;;;;;15.92;76.65;98384.44;5075775;28;40749;-83
2023/08/28 04:14:35;;;;;;;1.60;0.97;;;;;;;16.03;76.90;98411.00;5076416;28;42719;-83
2023/08/28 04:17:02;;;;;;;1.07;0.90;;;;;;;16.02;76.82;98414.66;5093009;28;43303;-83
2023/08/28 04:19:30;;;;;;;1.27;0.87;;;;;;;16.02;76.85;98420.00;5059087;28;38894;-88
2023/08/28 04:21:58;;;;;;;1.13;1.03;;;;;;;15.93;76.92;98401.31;5058326;28;41754;-87
2023/08/28 04:24:25;;;;;;;0.70;0.70;;;;;;;15.93;76.62;98401.31;5057312;28;43183;-87
2023/08/28 04:26:53;;;;;;;1.00;1.00;;;;;;;16.03;76.67;98418.19;5074109;28;41128;-84
2023/08/28 04:29:20;;;;;;;1.20;1.07;;;;;;;15.94;76.57;98403.84;5074882;28;39693;-85
2023/08/28 04:31:50;;;;;;;1.43;1.20;;;;;;;16.03;76.50;98429.72;5091251;28;41781;-84
2023/08/28 04:34:17;;;;;;;1.03;0.97;;;;;;;16.04;76.49;98426.06;5074573;28;41899;-83
2023/08/28 04:36:45;;;;;;;0.93;0.93;;;;;;;16.04;76.49;98414.53;5074515;28;41034;-84
2023/08/28 04:39:13;;;;;;;1.17;1.07;;;;;;;16.05;76.11;98422.41;5074800;28;40701;-82
2023/08/28 04:41:40;;;;;;;0.73;0.73;;;;;;;15.91;76.27;98404.13;5057650;28;40591;-81
2023/08/28 04:44:08;;;;;;;0.77;0.77;;;;;;;16.04;76.32;98422.53;5074288;28;41692;-84
2023/08/28 04:46:35;;;;;;;1.07;0.90;;;;;;;16.03;76.16;98432.38;5074455;28;41217;-85
2023/08/28 04:49:06;;;;;;;0.97;0.90;;;;;;;16.04;76.45;98420.72;5057440;28;40150;-83
2023/08/28 04:51:34;;;;;;;1.53;1.10;;;;;;;16.05;76.61;98417.06;5089431;28;41697;-84
2023/08/28 04:54:01;;;;;;;2.13;1.10;;;;;;;16.07;76.62;98425.75;5091781;28;43636;-85
2023/08/28 04:56:30;;;;;;;1.80;1.00;;;;;;;15.96;76.71;98409.88;5058380;28;41309;-89
2023/08/28 04:58:57;;;;;;;1.30;1.10;;;;;;;16.08;76.16;98431.94;5058451;28;39237;-89
2023/08/28 05:01:25;;;;;;;0.97;0.90;;;;;;;16.09;76.06;98422.94;5058425;28;42081;-89
2023/08/28 05:03:52;;;;;;;0.90;0.90;;;;;;;16.10;76.43;98420.13;5074915;28;42723;-91
2023/08/28 05:06:21;;;;;;;0.97;0.83;;;;;;;16.16;76.25;98434.75;5075374;28;41546;-83
2023/08/28 05:08:49;;;;;;;1.27;0.93;;;;;;;16.16;76.48;98424.94;5075565;28;40426;-84
2023/08/28 05:11:17;;;;;;;2.50;1.20;;;;;;;16.21;76.35;98437.00;5058211;28;40947;-87
2023/08/28 05:13:44;;;;;;;1.20;1.00;;;;;;;16.21;76.17;98410.28;5058290;28;41940;-83
2023/08/28 05:16:12;;;;;;;2.23;1.13;;;;;;;16.12;76.51;98396.78;5075079;28;41481;-84
2023/08/28 05:18:39;;;;;;;0.80;0.80;;;;;;;16.22;76.23;98411.97;5075477;28;40954;-86
2023/08/28 05:21:07;;;;;;;1.10;1.00;;;;;;;16.33;76.28;98419.81;5058271;28;40973;-87
2023/08/28 05:23:37;;;;;;;1.03;1.03;;;;;;;16.36;76.53;98416.88;5055854;28;42102;-86
2023/08/28 05:26:05;;;;;;;0.90;0.80;;;;;;;16.36;76.38;98403.50;5073963;28;42485;-88
2023/08/28 05:28:35;;;;;;;1.07;1.07;;;;;;;16.38;76.48;98407.75;5056886;28;39993;-84
2023/08/28 05:31:03;;;;;;;1.47;1.20;;;;;;;16.39;76.37;98408.59;5057029;28;41750;-82
2023/08/28 05:33:31;;;;;;;1.67;1.23;;;;;;;16.41;76.53;98414.63;5073814;28;43471;-86
2023/08/28 05:35:59;;;;;;;1.00;1.00;;;;;;;16.41;76.50;98412.81;5056733;28;41328;-86
2023/08/28 05:38:27;;;;;;;1.50;1.07;;;;;;;16.44;76.64;98409.00;5056765;28;40163;-86
2023/08/28 05:40:56;;;;;;;1.40;1.17;;;;;;;16.30;76.51;98390.75;5056800;28;40729;-82
2023/08/28 05:43:23;;;;;;;1.17;1.07;;;;;;;16.49;76.43;98414.75;5073996;28;43755;-84
2023/08/28 05:45:51;;;;;;;1.10;1.00;;;;;;;16.50;76.34;98408.41;5091514;28;42094;-86
2023/08/28 05:48:18;;;;;;;0.90;0.90;;;;;;;16.50;76.22;98405.75;5073488;28;40089;-87
2023/08/28 05:50:49;;;;;;;1.63;1.03;;;;;;;16.44;75.89;98390.31;5074111;28;41531;-88
2023/08/28 05:53:17;;;;;;;1.13;1.03;;;;;;;16.60;75.55;98400.38;5073963;28;43106;-80
2023/08/28 05:55:46;;;;;;;1.43;1.30;;;;;;;16.60;75.67;98397.69;5074245;28;42766;-81
2023/08/28 05:58:15;;;;;;;2.03;1.20;;;;;;;16.62;75.51;98407.28;5092174;28;39901;-81
2023/08/28 06:00:43;;;;;;;1.30;1.20;;;;;;;16.33;75.56;98353.88;5058958;28;41777;-80
2023/08/28 06:03:10;;;;;;;0.80;0.70;;;;;;;16.70;75.24;98418.09;5056034;28;41610;-82
2023/08/28 06:05:38;;;;;;;1.40;0.90;;;;;;;16.52;75.42;98385.91;5080088;28;41103;-81
2023/08/28 06:08:07;;;;;;;1.20;1.10;;;;;;;16.66;75.17;98406.03;5058023;28;39891;-80
2023/08/28 06:10:38;;;;;;;1.80;1.10;;;;;;;16.55;75.22;98392.81;5057477;28;40486;-82
2023/08/28 06:13:06;;;;;;;1.20;1.10;;;;;;;16.80;75.11;98434.97;5057435;28;43214;-81
2023/08/28 06:15:35;;;;;;;0.90;0.80;;;;;;;16.80;75.04;98426.97;5077923;28;42992;-82
2023/08/28 06:18:04;;;;;;;1.83;0.90;;;;;;;16.83;75.16;98418.63;5074658;28;39090;-81
2023/08/28 06:20:32;;;;;;;0.90;0.90;;;;;;;16.74;75.11;98406.13;5058776;28;41931;-81
2023/08/28 06:23:00;;;;;;;1.10;1.00;;;;;;;16.84;75.23;98414.97;5075633;28;42928;-81
2023/08/28 06:25:27;;;;;;;1.47;1.00;;;;;;;16.76;75.02;98400.66;5059294;28;40766;-80
2023/08/28 06:27:55;;;;;;;1.00;0.90;;;;;;;16.80;74.94;98392.19;5059068;28;38902;-81
2023/08/28 06:30:22;;;;;;;2.63;1.43;;;;;;;16.97;75.07;98411.13;5059933;28;42162;-80
2023/08/28 06:32:51;;;;;;;1.20;1.10;;;;;;;16.99;75.09;98406.47;5059022;28;42706;-80
2023/08/28 06:35:19;;;;;;;1.80;1.00;;;;;;;17.02;74.49;98414.22;5075998;28;44247;-80
2023/08/28 06:37:47;;;;;;;0.80;0.67;;;;;;;16.98;74.73;98402.09;5075274;28;40069;-83
2023/08/28 06:40:15;;;;;;;1.33;1.17;;;;;;;17.05;74.33;98408.56;5094137;28;41721;-81
2023/08/28 06:42:43;;;;;;;0.80;0.80;;;;;;;17.07;74.52;98401.22;5075426;28;41586;-82
2023/08/28 06:45:11;;;;;;;1.10;1.00;;;;;;;17.18;74.24;98406.41;5076284;28;41668;-80
2023/08/28 06:47:38;;;;;;;1.27;1.17;;;;;;;17.22;73.96;98397.91;5058344;28;40360;-80
2023/08/28 06:50:09;;;;;;;1.07;0.97;;;;;;;17.29;73.93;98395.50;5058996;28;40677;-83
2023/08/28 06:52:36;;;;;;;1.73;1.20;;;;;;;17.32;73.45;98397.84;5075460;28;41730;-83
2023/08/28 06:55:04;;;;;;;1.90;1.13;;;;;;;17.23;73.16;98377.34;5076962;28;41345;-84
2023/08/28 06:57:32;;;;;;;1.50;1.37;;;;;;;17.32;73.01;98386.28;5076693;28;40847;-82
2023/08/28 06:59:59;;;;;;;1.47;1.20;;;;;;;17.18;72.74;98363.59;5077174;28;41808;-81
2023/08/28 07:02:28;;;;;;;1.67;1.07;;;;;;;17.31;72.75;98384.66;5059196;28;43038;-82
2023/08/28 07:04:56;;;;;;;1.20;1.10;;;;;;;17.32;72.94;98376.44;5076667;28;42503;-80
2023/08/28 07:07:25;;;;;;;0.93;0.90;;;;;;;17.20;72.54;98351.72;5059471;28;40431;-84
2023/08/28 07:09:52;;;;;;;1.37;1.07;;;;;;;17.31;72.80;98361.38;5060089;28;41212;-84
2023/08/28 07:12:20;;;;;;;0.97;0.83;;;;;;;17.37;72.56;98347.41;5059299;28;42906;-79
2023/08/28 07:15:26;;;;;;;0.73;0.73;;;;;;;17.43;72.31;98338.75;5076197;28;42619;-80
2023/08/28 07:17:53;;;;;;;2.87;0.97;;;;;;;17.48;72.36;98339.16;5073246;28;39910;-81
2023/08/28 07:20:23;;;;;;;0.80;0.80;;;;;;;17.57;72.32;98343.56;5076608;28;40992;-82
2023/08/28 07:22:53;;;;;;;1.00;1.00;;;;;;;17.63;72.32;98335.94;5074416;28;41718;-85
2023/08/28 07:25:22;;;;;;;2.40;1.10;;;;;;;17.84;71.58;98355.25;5075199;28;42517;-82
2023/08/28 07:27:50;;;;;;;1.00;0.90;;;;;;;17.88;71.47;98321.81;5075289;28;40091;-83
2023/08/28 07:30:18;;;;;;;1.13;1.03;;;;;;;18.13;71.02;98339.75;5075013;28;41748;-81
2023/08/28 07:32:46;;;;;;;1.23;1.13;;;;;;;18.31;70.77;98343.22;5074446;28;43224;-79
2023/08/28 07:35:13;;;;;;;1.50;0.80;;;;;;;18.52;70.26;98356.28;5075064;28;41215;-83
2023/08/28 07:37:41;;;;;;;0.90;0.90;;;;;;;18.73;69.81;98369.34;5092723;28;39772;-81
2023/08/28 07:40:10;;;;;;;1.43;0.90;;;;;;;18.83;68.69;98372.75;5058095;28;41149;-82
2023/08/28 07:42:38;;;;;;;0.83;0.80;;;;;;;18.94;68.65;98358.22;5057047;28;41427;-83
2023/08/28 07:45:07;;;;;;;0.87;0.80;;;;;;;19.12;68.09;98347.41;5074829;28;43294;-82
2023/08/28 07:47:34;;;;;;;1.40;0.93;;;;;;;19.39;67.41;98382.06;5092362;28;40931;-83
2023/08/28 07:50:03;;;;;;;1.67;1.00;;;;;;;19.45;66.26;98386.78;5074975;28;40981;-80
2023/08/28 07:52:30;;;;;;;1.43;0.80;;;;;;;19.45;66.58;98357.22;5073976;28;42190;-79
2023/08/28 07:54:58;;;;;;;1.60;0.80;;;;;;;19.63;65.70;98363.34;5075753;28;42726;-80
2023/08/28 07:57:27;;;;;;;1.37;0.80;;;;;;;19.74;65.71;98364.88;5058152;28;39007;-83
2023/08/28 07:59:55;;;;;;;1.30;1.10;;;;;;;19.61;63.26;98368.06;5059066;28;40766;-82
2023/08/28 08:02:22;;;;;;;0.90;0.90;;;;;;;19.77;63.71;98390.59;5075148;28;41587;-81
2023/08/28 08:04:50;;;;;;;1.00;0.93;;;;;;;19.81;62.59;98405.34;5058135;28;41247;-79
2023/08/28 08:07:18;;;;;;;0.93;0.93;;;;;;;19.89;63.46;98405.38;5058522;28;39974;-81
2023/08/28 08:09:45;;;;;;;0.97;0.80;;;;;;;19.99;62.77;98400.69;5058007;28;40789;-80
2023/08/28 08:12:13;;;;;;;0.80;0.80;;;;;;;20.08;63.36;98388.94;5074609;28;41657;-80
2023/08/28 08:14:42;;;;;;;0.70;0.70;;;;;;;20.18;62.28;98392.28;5093498;28;42252;-81
2023/08/28 08:17:09;;;;;;;1.10;1.00;;;;;;;20.12;60.56;98400.19;5074725;28;39033;-82
2023/08/28 08:19:37;;;;;;;2.60;1.00;;;;;;;20.08;60.48;98399.69;5058485;28;42093;-77
2023/08/28 08:22:05;;;;;;;0.70;0.70;;;;;;;20.04;60.16;98399.16;5074358;28;42016;-78
2023/08/28 08:24:33;;;;;;;0.97;0.90;;;;;;;19.86;60.12;98386.91;5091379;28;42804;-80
2023/08/28 08:27:01;;;;;;;0.80;0.70;;;;;;;19.93;60.69;98409.41;5056554;28;40436;-80
2023/08/28 08:29:28;;;;;;;1.10;0.87;;;;;;;19.87;60.48;98405.56;5056608;28;40893;-80
2023/08/28 08:31:57;;;;;;;1.10;1.00;;;;;;;19.69;59.82;98402.13;5073228;28;41945;-80
2023/08/28 08:34:25;;;;;;;1.33;0.77;;;;;;;19.72;60.63;98416.09;5056582;28;42257;-79
2023/08/28 08:36:52;;;;;;;1.17;0.90;;;;;;;19.67;59.74;98409.53;5072731;28;40936;-78
2023/08/28 08:39:21;;;;;;;0.80;0.80;;;;;;;19.64;59.77;98402.66;5073536;28;41819;-79
2023/08/28 08:41:48;;;;;;;1.00;0.90;;;;;;;19.71;60.86;98403.66;5072722;28;41784;-78
2023/08/28 08:44:16;;;;;;;1.10;1.00;;;;;;;19.78;60.54;98403.81;5091502;28;42023;-80
2023/08/28 08:46:45;;;;;;;1.67;1.20;;;;;;;19.71;59.53;98400.13;5091052;28;40250;-79
2023/08/28 08:49:20;;;;;;;1.20;1.10;;;;;;;19.69;59.62;98394.91;5073715;28;41238;-82
2023/08/28 08:51:51;;;;;;;1.10;1.00;;;;;;;19.71;59.88;98392.91;5070304;28;42492;-81
2023/08/28 08:54:24;;;;;;;0.80;0.80;;;;;;;19.94;60.05;98421.84;5074757;28;41096;-80
2023/08/28 08:57:00;;;;;;;1.10;1.00;;;;;;;20.15;60.36;98426.75;5057368;28;40069;-84
2023/08/28 08:59:27;;;;;;;1.27;0.97;;;;;;;20.30;60.13;98449.28;5058074;28;41200;-84
2023/08/28 09:01:57;;;;;;;0.90;0.90;;;;;;;20.40;59.81;98455.34;5057702;28;43623;-85
2023/08/28 09:04:26;;;;;;;0.87;0.80;;;;;;;20.52;60.11;98455.88;5075090;28;43149;-79
2023/08/28 09:06:58;;;;;;;1.83;1.20;;;;;;;20.61;60.18;98454.88;5057522;28;38928;-82
2023/08/28 09:09:25;;;;;;;1.60;1.10;;;;;;;20.74;60.05;98461.41;5089618;28;41615;-81
2023/08/28 09:11:53;;;;;;;1.73;1.40;;;;;;;20.86;60.12;98455.69;5056828;28;41662;-83
2023/08/28 09:14:20;;;;;;;1.40;1.30;;;;;;;20.86;58.23;98464.59;5074459;28;41243;-81
2023/08/28 09:16:48;;;;;;;1.47;0.93;;;;;;;20.95;59.18;98468.94;5091128;28;40902;-81
2023/08/28 09:19:16;;;;;;;2.47;1.07;;;;;;;21.04;56.54;98489.44;5055497;28;40659;-80
2023/08/28 09:21:47;;;;;;;1.10;1.00;;;;;;;21.09;55.95;98487.09;5057107;28;41997;-82
2023/08/28 09:24:14;;;;;;;2.03;1.67;;;;;;;21.05;54.57;98485.75;5056884;28;41082;-81
2023/08/28 09:26:51;;;;;;;1.30;1.20;;;;;;;21.07;54.69;98478.34;5072601;28;39696;-82
2023/08/28 09:29:22;;;;;;;1.20;1.10;;;;;;;21.13;55.35;98479.53;5073201;28;40726;-80
2023/08/28 09:31:50;;;;;;;2.00;1.40;;;;;;;21.14;54.83;98494.69;5088091;28;42810;-81
2023/08/28 09:34:19;;;;;;;1.80;1.20;;;;;;;20.89;55.16;98452.66;5073019;28;41445;-83
2023/08/28 09:36:48;;;;;;;3.07;1.00;;;;;;;21.22;55.57;98496.53;5056121;28;40293;-85
2023/08/28 09:39:16;;;;;;;1.20;1.10;;;;;;;21.36;55.38;98503.91;5072637;28;41257;-83
2023/08/28 09:41:47;;;;;;;0.83;0.83;;;;;;;21.46;55.62;98489.22;5089287;28;43628;-81
2023/08/28 09:44:17;;;;;;;1.23;1.17;;;;;;;21.32;55.33;98464.84;5072519;28;41360;-81
2023/08/28 09:46:46;;;;;;;2.50;1.10;;;;;;;21.51;55.22;98486.81;5072253;28;38636;-83
2023/08/28 09:49:17;;;;;;;1.30;1.20;;;;;;;21.48;55.38;98465.66;5055663;28;40627;-79
2023/08/28 09:51:45;;;;;;;2.00;1.20;;;;;;;21.66;54.72;98478.84;5072600;28;42542;-79
2023/08/28 09:54:16;;;;;;;2.73;1.20;;;;;;;21.50;54.12;98452.84;5073044;28;42206;-80
2023/08/28 09:56:45;;;;;;;1.30;1.20;;;;;;;21.67;54.63;98490.47;5056775;28;40345;-81
2023/08/28 09:59:14;;;;;;;1.17;1.10;;;;;;;21.55;53.05;98491.88;5073595;28;40766;-82
2023/08/28 10:01:42;;;;;;;1.53;1.00;;;;;;;21.64;54.02;98488.97;5073274;28;41795;-81
2023/08/28 10:04:12;;;;;;;1.57;1.20;;;;;;;21.67;53.71;98482.41;5073310;28;43034;-80
2023/08/28 10:06:47;;;;;;;1.03;0.93;;;;;;;21.70;53.64;98482.06;5056600;28;39067;-81
2023/08/28 10:09:21;;;;;;;1.47;0.90;;;;;;;21.65;53.95;98482.56;5088592;28;41558;-80
2023/08/28 10:11:51;;;;;;;1.00;0.83;;;;;;;21.40;53.23;98470.19;5073659;28;41850;-82
2023/08/28 10:14:21;;;;;;;1.20;1.10;;;;;;;21.35;54.14;98451.88;5073529;28;41660;-83
2023/08/28 10:16:53;;;;;;;2.10;1.13;;;;;;;21.48;54.07;98465.66;5072917;28;39822;-79
2023/08/28 10:19:25;;;;;;;0.87;0.87;;;;;;;21.38;53.90;98456.09;5069725;28;42620;-82
2023/08/28 10:21:53;;;;;;;1.10;1.00;;;;;;;21.40;54.76;98445.94;5072282;28;43193;-82
2023/08/28 10:24:24;;;;;;;1.03;1.00;;;;;;;21.37;54.50;98451.72;5055453;28;41579;-80
2023/08/28 10:26:55;;;;;;;1.20;1.07;;;;;;;21.25;54.06;98439.63;5071998;28;39491;-83
2023/08/28 10:29:23;;;;;;;2.90;1.20;;;;;;;21.23;53.53;98466.75;5056127;28;40368;-82
2023/08/28 10:31:54;;;;;;;2.03;1.20;;;;;;;20.89;54.06;98396.13;5055367;28;42839;-83
2023/08/28 10:34:22;;;;;;;1.60;1.07;;;;;;;21.42;53.89;98443.94;5072447;28;41286;-85
2023/08/28 10:36:52;;;;;;;1.93;1.23;;;;;;;21.77;53.63;98458.75;5072227;28;41316;-83
2023/08/28 10:39:19;;;;;;;1.30;1.20;;;;;;;21.87;52.18;98454.00;5072231;28;41334;-83
2023/08/28 10:41:49;;;;;;;2.63;1.10;;;;;;;22.11;53.01;98439.56;5072245;28;43993;-83
2023/08/28 10:44:17;;;;;;;2.20;1.30;;;;;;;22.40;51.99;98445.06;5055264;28;41395;-83
2023/08/28 10:46:47;;;;;;;1.23;1.13;;;;;;;22.64;52.00;98445.88;5055184;28;39989;-83
2023/08/28 10:49:17;;;;;;;1.27;1.17;;;;;;;22.93;51.78;98435.19;5072436;28;41242;-83
2023/08/28 10:51:45;;;;;;;1.20;0.90;;;;;;;23.42;51.00;98423.81;5056733;28;41956;-83
2023/08/28 10:54:12;;;;;;;1.33;1.20;;;;;;;23.94;48.92;98424.50;5057718;28;45563;-80
2023/08/28 10:56:40;;;;;;;2.17;1.17;;;;;;;24.43;48.35;98444.59;5058611;28;40036;-82
2023/08/28 10:59:26;;;;;;;1.20;1.10;;;;;;;24.71;46.75;98445.47;5059544;28;40777;-83
2023/08/28 11:01:56;;;;;;;1.13;0.97;;;;;;;24.84;46.66;98437.44;5076171;28;42063;-82
2023/08/28 11:04:24;;;;;;;1.80;1.30;;;;;;;25.07;46.08;98434.50;5075815;28;42649;-88
2023/08/28 11:06:52;;;;;;;1.10;1.00;;;;;;;25.32;46.34;98414.03;5076540;28;40087;-80
2023/08/28 11:09:37;;;;;;;0.90;0.90;;;;;;;25.48;44.88;98406.56;5093817;28;41052;-82
2023/08/28 11:12:27;;;;;;;3.13;1.10;;;;;;;25.53;44.80;98425.81;5090105;28;42756;-82
2023/08/28 11:15:03;;;;;;;2.77;1.10;;;;;;;25.55;45.36;98402.03;5076238;28;41917;-80
2023/08/28 11:17:32;;;;;;;1.13;0.87;;;;;;;25.63;44.18;98416.28;5093374;28;40007;-81
2023/08/28 11:20:05;;;;;;;1.30;1.20;;;;;;;25.67;44.42;98401.28;5092791;28;42462;-82
2023/08/28 11:22:33;;;;;;;0.70;0.70;;;;;;;25.71;44.44;98391.72;5074874;28;41906;-84
2023/08/28 11:25:04;;;;;;;0.83;0.83;;;;;;;25.96;43.93;98389.28;5091344;28;41996;-83
2023/08/28 11:27:34;;;;;;;1.10;1.00;;;;;;;26.04;42.73;98389.06;5074869;28;38855;-81
2023/08/28 11:30:06;;;;;;;1.20;1.00;;;;;;;26.23;43.55;98368.41;5074542;28;42308;-80
2023/08/28 11:32:35;;;;;;;0.73;0.73;;;;;;;26.51;43.19;98370.97;5062260;28;41768;-90
2023/08/28 11:35:08;;;;;;;0.70;0.70;;;;;;;26.85;42.07;98378.03;5075475;28;41476;-84
2023/08/28 11:37:37;;;;;;;0.87;0.87;;;;;;;27.09;40.35;98368.41;5057889;28;40067;-86
2023/08/28 11:40:07;;;;;;;1.07;0.60;;;;;;;27.31;40.31;98375.28;5057794;28;41815;-83
2023/08/28 11:42:35;;;;;;;0.70;0.70;;;;;;;27.54;41.12;98382.91;5058218;28;41616;-82